sensor_id;sensor_type;location;lat;lon;timestamp;P1;durP1;ratioP1;P2;durP2;ratioP2
10442;SDS011;5269;51.146;16.986;2022-11-15T00:02:26;52.03;;;27.80;;
10442;SDS011;5269;51.146;16.986;2022-11-15T00:04:54;45.42;;;27.13;;
10442;SDS011;5269;51.146;16.986;2022-11-15T00:07:21;52.70;;;28.08;;
10442;SDS011;5269;51.146;16.986;2022-11-15T00:09:48;50.65;;;29.02;;
10442;SDS011;5269;51.146;16.986;2022-11-15T00:12:15;48.28;;;28.17;;
10442;SDS011;5269;51.146;16.986;2022-11-15T00:14:42;55.17;;;28.35;;
10442;SDS011;5269;51.146;16.986;2022-11-15T00:17:09;53.47;;;28.58;;
10442;SDS011;5269;51.146;16.986;2022-11-15T00:19:36;51.47;;;28.80;;
10442;SDS011;5269;51.146;16.986;2022-11-15T00:22:04;53.08;;;27.63;;
10442;SDS011;5269;51.146;16.986;2022-11-15T00:24:33;49.90;;;29.38;;
10442;SDS011;5269;51.146;16.986;2022-11-15T00:27:00;51.35;;;28.13;;
10442;SDS011;5269;51.146;16.986;2022-11-15T00:29:27;50.75;;;28.67;;
10442;SDS011;5269;51.146;16.986;2022-11-15T00:31:54;51.53;;;28.17;;
10442;SDS011;5269;51.146;16.986;2022-11-15T00:34:21;50.50;;;28.98;;
10442;SDS011;5269;51.146;16.986;2022-11-15T00:36:48;55.20;;;29.42;;
10442;SDS011;5269;51.146;16.986;2022-11-15T00:39:16;52.95;;;28.85;;
10442;SDS011;5269;51.146;16.986;2022-11-15T00:41:43;49.20;;;29.00;;
10442;SDS011;5269;51.146;16.986;2022-11-15T00:44:10;52.63;;;28.95;;
10442;SDS011;5269;51.146;16.986;2022-11-15T00:46:40;51.03;;;29.35;;
10442;SDS011;5269;51.146;16.986;2022-11-15T00:49:08;52.03;;;29.17;;
10442;SDS011;5269;51.146;16.986;2022-11-15T00:51:38;53.90;;;29.00;;
10442;SDS011;5269;51.146;16.986;2022-11-15T00:54:04;47.05;;;27.48;;
10442;SDS011;5269;51.146;16.986;2022-11-15T00:59:15;49.58;;;27.38;;
10442;SDS011;5269;51.146;16.986;2022-11-15T01:01:42;48.22;;;28.58;;
10442;SDS011;5269;51.146;16.986;2022-11-15T01:04:09;50.22;;;27.83;;
10442;SDS011;5269;51.146;16.986;2022-11-15T01:06:37;49.20;;;27.52;;
10442;SDS011;5269;51.146;16.986;2022-11-15T01:09:04;64.28;;;30.13;;
10442;SDS011;5269;51.146;16.986;2022-11-15T01:11:31;49.20;;;27.23;;
10442;SDS011;5269;51.146;16.986;2022-11-15T01:13:59;46.92;;;26.63;;
10442;SDS011;5269;51.146;16.986;2022-11-15T01:16:26;49.58;;;27.90;;
10442;SDS011;5269;51.146;16.986;2022-11-15T01:18:53;56.22;;;29.38;;
10442;SDS011;5269;51.146;16.986;2022-11-15T01:21:20;48.10;;;27.95;;
10442;SDS011;5269;51.146;16.986;2022-11-15T01:23:47;54.30;;;27.77;;
10442;SDS011;5269;51.146;16.986;2022-11-15T01:26:14;45.55;;;26.63;;
10442;SDS011;5269;51.146;16.986;2022-11-15T01:28:42;50.58;;;28.20;;
10442;SDS011;5269;51.146;16.986;2022-11-15T01:31:11;51.40;;;28.33;;
10442;SDS011;5269;51.146;16.986;2022-11-15T01:33:39;49.33;;;27.55;;
10442;SDS011;5269;51.146;16.986;2022-11-15T01:36:07;49.08;;;26.98;;
10442;SDS011;5269;51.146;16.986;2022-11-15T01:38:37;52.28;;;28.08;;
10442;SDS011;5269;51.146;16.986;2022-11-15T01:41:04;51.08;;;28.05;;
10442;SDS011;5269;51.146;16.986;2022-11-15T01:43:32;49.53;;;28.38;;
10442;SDS011;5269;51.146;16.986;2022-11-15T01:46:00;52.97;;;27.92;;
10442;SDS011;5269;51.146;16.986;2022-11-15T01:48:32;54.38;;;28.70;;
10442;SDS011;5269;51.146;16.986;2022-11-15T01:51:00;51.88;;;27.80;;
10442;SDS011;5269;51.146;16.986;2022-11-15T01:53:30;49.55;;;27.85;;
10442;SDS011;5269;51.146;16.986;2022-11-15T01:56:00;53.13;;;29.20;;
10442;SDS011;5269;51.146;16.986;2022-11-15T01:58:30;51.75;;;27.55;;
10442;SDS011;5269;51.146;16.986;2022-11-15T02:01:00;52.65;;;29.35;;
10442;SDS011;5269;51.146;16.986;2022-11-15T02:03:33;45.67;;;27.10;;
10442;SDS011;5269;51.146;16.986;2022-11-15T02:06:04;52.35;;;28.25;;
10442;SDS011;5269;51.146;16.986;2022-11-15T02:08:31;50.88;;;27.80;;
10442;SDS011;5269;51.146;16.986;2022-11-15T02:10:58;48.80;;;28.20;;
10442;SDS011;5269;51.146;16.986;2022-11-15T02:13:26;51.55;;;29.20;;
10442;SDS011;5269;51.146;16.986;2022-11-15T02:15:56;49.75;;;28.13;;
10442;SDS011;5269;51.146;16.986;2022-11-15T02:18:45;50.20;;;27.35;;
10442;SDS011;5269;51.146;16.986;2022-11-15T02:21:18;51.75;;;28.33;;
10442;SDS011;5269;51.146;16.986;2022-11-15T02:24:02;50.20;;;28.33;;
10442;SDS011;5269;51.146;16.986;2022-11-15T02:30:04;54.05;;;28.77;;
10442;SDS011;5269;51.146;16.986;2022-11-15T02:32:44;53.40;;;30.40;;
10442;SDS011;5269;51.146;16.986;2022-11-15T02:35:16;59.45;;;29.52;;
10442;SDS011;5269;51.146;16.986;2022-11-15T02:37:52;53.17;;;28.45;;
10442;SDS011;5269;51.146;16.986;2022-11-15T02:40:25;53.00;;;28.40;;
10442;SDS011;5269;51.146;16.986;2022-11-15T02:42:57;56.80;;;30.20;;
10442;SDS011;5269;51.146;16.986;2022-11-15T02:45:48;57.38;;;30.55;;
10442;SDS011;5269;51.146;16.986;2022-11-15T02:48:19;52.50;;;29.85;;
10442;SDS011;5269;51.146;16.986;2022-11-15T02:50:48;54.97;;;30.13;;
10442;SDS011;5269;51.146;16.986;2022-11-15T02:53:15;56.72;;;30.02;;
10442;SDS011;5269;51.146;16.986;2022-11-15T02:55:43;61.28;;;30.30;;
10442;SDS011;5269;51.146;16.986;2022-11-15T02:58:33;57.10;;;28.70;;
10442;SDS011;5269;51.146;16.986;2022-11-15T03:01:22;53.25;;;28.95;;
10442;SDS011;5269;51.146;16.986;2022-11-15T03:03:59;50.00;;;27.50;;
10442;SDS011;5269;51.146;16.986;2022-11-15T03:06:37;51.42;;;27.70;;
10442;SDS011;5269;51.146;16.986;2022-11-15T03:09:13;54.83;;;28.58;;
10442;SDS011;5269;51.146;16.986;2022-11-15T03:11:52;54.17;;;28.23;;
10442;SDS011;5269;51.146;16.986;2022-11-15T03:14:24;52.92;;;26.73;;
10442;SDS011;5269;51.146;16.986;2022-11-15T03:17:01;54.85;;;26.80;;
10442;SDS011;5269;51.146;16.986;2022-11-15T03:19:39;50.50;;;27.15;;
10442;SDS011;5269;51.146;16.986;2022-11-15T03:22:10;50.60;;;27.13;;
10442;SDS011;5269;51.146;16.986;2022-11-15T03:24:40;54.50;;;28.08;;
10442;SDS011;5269;51.146;16.986;2022-11-15T03:27:09;52.92;;;28.90;;
10442;SDS011;5269;51.146;16.986;2022-11-15T03:29:41;52.80;;;27.60;;
10442;SDS011;5269;51.146;16.986;2022-11-15T03:32:14;53.72;;;26.70;;
10442;SDS011;5269;51.146;16.986;2022-11-15T03:34:44;53.10;;;28.35;;
10442;SDS011;5269;51.146;16.986;2022-11-15T03:37:16;53.30;;;27.00;;
10442;SDS011;5269;51.146;16.986;2022-11-15T03:39:46;49.35;;;27.00;;
10442;SDS011;5269;51.146;16.986;2022-11-15T03:42:17;47.10;;;27.52;;
10442;SDS011;5269;51.146;16.986;2022-11-15T03:44:51;52.28;;;26.40;;
10442;SDS011;5269;51.146;16.986;2022-11-15T03:47:27;51.40;;;26.95;;
10442;SDS011;5269;51.146;16.986;2022-11-15T03:49:59;49.63;;;26.80;;
10442;SDS011;5269;51.146;16.986;2022-11-15T03:52:34;48.03;;;25.45;;
10442;SDS011;5269;51.146;16.986;2022-11-15T03:55:02;51.20;;;26.25;;
10442;SDS011;5269;51.146;16.986;2022-11-15T03:57:32;47.80;;;24.33;;
10442;SDS011;5269;51.146;16.986;2022-11-15T04:00:01;49.60;;;25.67;;
10442;SDS011;5269;51.146;16.986;2022-11-15T04:02:30;47.45;;;25.65;;
10442;SDS011;5269;51.146;16.986;2022-11-15T04:04:57;47.67;;;25.42;;
10442;SDS011;5269;51.146;16.986;2022-11-15T04:07:24;50.80;;;26.33;;
10442;SDS011;5269;51.146;16.986;2022-11-15T04:09:51;55.08;;;26.90;;
10442;SDS011;5269;51.146;16.986;2022-11-15T04:12:30;50.33;;;26.58;;
10442;SDS011;5269;51.146;16.986;2022-11-15T04:15:01;47.55;;;25.30;;
10442;SDS011;5269;51.146;16.986;2022-11-15T04:17:36;48.03;;;24.88;;
10442;SDS011;5269;51.146;16.986;2022-11-15T04:20:06;41.38;;;24.52;;
10442;SDS011;5269;51.146;16.986;2022-11-15T04:22:52;50.17;;;24.00;;
10442;SDS011;5269;51.146;16.986;2022-11-15T04:25:37;49.65;;;24.92;;
10442;SDS011;5269;51.146;16.986;2022-11-15T04:28:05;48.45;;;25.15;;
10442;SDS011;5269;51.146;16.986;2022-11-15T04:30:32;48.42;;;26.10;;
10442;SDS011;5269;51.146;16.986;2022-11-15T04:33:01;49.88;;;24.88;;
10442;SDS011;5269;51.146;16.986;2022-11-15T04:35:27;49.63;;;25.60;;
10442;SDS011;5269;51.146;16.986;2022-11-15T04:37:55;46.05;;;24.67;;
10442;SDS011;5269;51.146;16.986;2022-11-15T04:40:22;45.65;;;25.05;;
10442;SDS011;5269;51.146;16.986;2022-11-15T04:42:49;50.30;;;25.50;;
10442;SDS011;5269;51.146;16.986;2022-11-15T04:45:16;41.63;;;24.13;;
10442;SDS011;5269;51.146;16.986;2022-11-15T04:47:43;47.10;;;25.25;;
10442;SDS011;5269;51.146;16.986;2022-11-15T04:50:12;44.30;;;26.15;;
10442;SDS011;5269;51.146;16.986;2022-11-15T04:52:40;50.92;;;26.35;;
10442;SDS011;5269;51.146;16.986;2022-11-15T04:55:08;50.22;;;26.73;;
10442;SDS011;5269;51.146;16.986;2022-11-15T04:57:36;48.17;;;25.10;;
10442;SDS011;5269;51.146;16.986;2022-11-15T05:00:04;48.28;;;23.48;;
10442;SDS011;5269;51.146;16.986;2022-11-15T05:02:32;49.30;;;25.40;;
10442;SDS011;5269;51.146;16.986;2022-11-15T05:05:14;44.10;;;23.92;;
10442;SDS011;5269;51.146;16.986;2022-11-15T05:07:41;46.17;;;25.10;;
10442;SDS011;5269;51.146;16.986;2022-11-15T05:10:08;47.78;;;24.90;;
10442;SDS011;5269;51.146;16.986;2022-11-15T05:12:35;52.30;;;25.85;;
10442;SDS011;5269;51.146;16.986;2022-11-15T05:15:05;43.45;;;24.13;;
10442;SDS011;5269;51.146;16.986;2022-11-15T05:17:33;46.10;;;23.83;;
10442;SDS011;5269;51.146;16.986;2022-11-15T05:20:00;49.97;;;25.63;;
10442;SDS011;5269;51.146;16.986;2022-11-15T05:22:29;44.80;;;25.10;;
10442;SDS011;5269;51.146;16.986;2022-11-15T05:24:56;43.83;;;25.20;;
10442;SDS011;5269;51.146;16.986;2022-11-15T05:27:25;47.75;;;25.20;;
10442;SDS011;5269;51.146;16.986;2022-11-15T05:29:54;47.17;;;24.75;;
10442;SDS011;5269;51.146;16.986;2022-11-15T05:32:21;44.45;;;22.80;;
10442;SDS011;5269;51.146;16.986;2022-11-15T05:34:48;45.97;;;24.60;;
10442;SDS011;5269;51.146;16.986;2022-11-15T05:37:16;41.67;;;23.33;;
10442;SDS011;5269;51.146;16.986;2022-11-15T05:39:45;43.80;;;23.95;;
10442;SDS011;5269;51.146;16.986;2022-11-15T05:42:12;42.50;;;23.65;;
10442;SDS011;5269;51.146;16.986;2022-11-15T05:44:40;42.13;;;23.17;;
10442;SDS011;5269;51.146;16.986;2022-11-15T05:47:13;42.85;;;23.70;;
10442;SDS011;5269;51.146;16.986;2022-11-15T05:49:43;46.92;;;25.55;;
10442;SDS011;5269;51.146;16.986;2022-11-15T05:52:12;47.38;;;24.70;;
10442;SDS011;5269;51.146;16.986;2022-11-15T05:54:42;45.60;;;23.67;;
10442;SDS011;5269;51.146;16.986;2022-11-15T05:57:14;42.75;;;23.70;;
10442;SDS011;5269;51.146;16.986;2022-11-15T06:00:16;44.08;;;23.20;;
10442;SDS011;5269;51.146;16.986;2022-11-15T06:03:06;48.83;;;25.10;;
10442;SDS011;5269;51.146;16.986;2022-11-15T06:05:40;47.25;;;25.05;;
10442;SDS011;5269;51.146;16.986;2022-11-15T06:08:28;40.70;;;22.73;;
10442;SDS011;5269;51.146;16.986;2022-11-15T06:11:08;50.50;;;25.08;;
10442;SDS011;5269;51.146;16.986;2022-11-15T06:14:02;41.67;;;24.20;;
10442;SDS011;5269;51.146;16.986;2022-11-15T06:16:38;45.15;;;23.30;;
10442;SDS011;5269;51.146;16.986;2022-11-15T06:19:16;41.13;;;23.02;;
10442;SDS011;5269;51.146;16.986;2022-11-15T06:21:57;41.85;;;23.40;;
10442;SDS011;5269;51.146;16.986;2022-11-15T06:24:36;41.72;;;22.75;;
10442;SDS011;5269;51.146;16.986;2022-11-15T06:29:56;42.67;;;23.07;;
10442;SDS011;5269;51.146;16.986;2022-11-15T06:32:24;46.70;;;25.38;;
10442;SDS011;5269;51.146;16.986;2022-11-15T06:34:54;44.72;;;23.33;;
10442;SDS011;5269;51.146;16.986;2022-11-15T06:37:21;44.28;;;23.23;;
10442;SDS011;5269;51.146;16.986;2022-11-15T06:39:53;47.70;;;23.90;;
10442;SDS011;5269;51.146;16.986;2022-11-15T06:42:26;45.47;;;24.05;;
10442;SDS011;5269;51.146;16.986;2022-11-15T06:45:00;43.95;;;24.98;;
10442;SDS011;5269;51.146;16.986;2022-11-15T06:47:32;47.78;;;25.65;;
10442;SDS011;5269;51.146;16.986;2022-11-15T06:49:59;47.67;;;25.40;;
10442;SDS011;5269;51.146;16.986;2022-11-15T06:52:26;42.80;;;23.70;;
10442;SDS011;5269;51.146;16.986;2022-11-15T06:54:57;45.67;;;23.88;;
10442;SDS011;5269;51.146;16.986;2022-11-15T06:57:24;48.38;;;26.00;;
10442;SDS011;5269;51.146;16.986;2022-11-15T06:59:53;50.30;;;26.10;;
10442;SDS011;5269;51.146;16.986;2022-11-15T07:02:24;52.13;;;26.83;;
10442;SDS011;5269;51.146;16.986;2022-11-15T07:04:51;54.30;;;26.63;;
10442;SDS011;5269;51.146;16.986;2022-11-15T07:07:18;51.45;;;25.42;;
10442;SDS011;5269;51.146;16.986;2022-11-15T07:09:50;47.15;;;26.67;;
10442;SDS011;5269;51.146;16.986;2022-11-15T07:12:16;50.40;;;26.10;;
10442;SDS011;5269;51.146;16.986;2022-11-15T07:14:46;52.28;;;25.35;;
10442;SDS011;5269;51.146;16.986;2022-11-15T07:17:13;54.83;;;26.60;;
10442;SDS011;5269;51.146;16.986;2022-11-15T07:19:41;49.50;;;27.55;;
10442;SDS011;5269;51.146;16.986;2022-11-15T07:22:08;53.05;;;26.73;;
10442;SDS011;5269;51.146;16.986;2022-11-15T07:24:35;51.17;;;26.25;;
10442;SDS011;5269;51.146;16.986;2022-11-15T07:27:02;48.95;;;26.92;;
10442;SDS011;5269;51.146;16.986;2022-11-15T07:29:29;51.97;;;27.48;;
10442;SDS011;5269;51.146;16.986;2022-11-15T07:31:56;45.28;;;25.40;;
10442;SDS011;5269;51.146;16.986;2022-11-15T07:34:23;51.28;;;27.67;;
10442;SDS011;5269;51.146;16.986;2022-11-15T07:36:51;55.08;;;27.65;;
10442;SDS011;5269;51.146;16.986;2022-11-15T07:39:18;52.50;;;29.27;;
10442;SDS011;5269;51.146;16.986;2022-11-15T07:41:45;56.05;;;29.05;;
10442;SDS011;5269;51.146;16.986;2022-11-15T07:44:13;55.85;;;28.63;;
10442;SDS011;5269;51.146;16.986;2022-11-15T07:46:40;58.30;;;29.20;;
10442;SDS011;5269;51.146;16.986;2022-11-15T07:49:06;51.92;;;28.20;;
10442;SDS011;5269;51.146;16.986;2022-11-15T07:51:33;53.50;;;29.73;;
10442;SDS011;5269;51.146;16.986;2022-11-15T07:54:02;58.47;;;31.98;;
10442;SDS011;5269;51.146;16.986;2022-11-15T07:56:28;60.75;;;32.50;;
10442;SDS011;5269;51.146;16.986;2022-11-15T07:58:55;58.28;;;31.50;;
10442;SDS011;5269;51.146;16.986;2022-11-15T08:01:24;57.42;;;31.00;;
10442;SDS011;5269;51.146;16.986;2022-11-15T08:03:51;64.18;;;32.05;;
10442;SDS011;5269;51.146;16.986;2022-11-15T08:06:17;60.53;;;31.50;;
10442;SDS011;5269;51.146;16.986;2022-11-15T08:08:46;60.22;;;31.67;;
10442;SDS011;5269;51.146;16.986;2022-11-15T08:11:14;55.95;;;31.23;;
10442;SDS011;5269;51.146;16.986;2022-11-15T08:13:41;63.33;;;32.28;;
10442;SDS011;5269;51.146;16.986;2022-11-15T08:16:08;63.20;;;32.08;;
10442;SDS011;5269;51.146;16.986;2022-11-15T08:18:37;60.92;;;33.65;;
10442;SDS011;5269;51.146;16.986;2022-11-15T08:21:04;61.08;;;32.33;;
10442;SDS011;5269;51.146;16.986;2022-11-15T08:23:31;59.95;;;34.28;;
10442;SDS011;5269;51.146;16.986;2022-11-15T08:26:01;63.50;;;33.53;;
10442;SDS011;5269;51.146;16.986;2022-11-15T08:28:31;54.67;;;32.25;;
10442;SDS011;5269;51.146;16.986;2022-11-15T08:30:58;62.60;;;33.35;;
10442;SDS011;5269;51.146;16.986;2022-11-15T08:33:25;60.50;;;34.40;;
10442;SDS011;5269;51.146;16.986;2022-11-15T08:35:55;59.45;;;32.97;;
10442;SDS011;5269;51.146;16.986;2022-11-15T08:38:22;60.03;;;33.63;;
10442;SDS011;5269;51.146;16.986;2022-11-15T08:40:50;61.25;;;33.95;;
10442;SDS011;5269;51.146;16.986;2022-11-15T08:43:17;56.30;;;33.65;;
10442;SDS011;5269;51.146;16.986;2022-11-15T08:45:45;60.03;;;34.83;;
10442;SDS011;5269;51.146;16.986;2022-11-15T08:48:12;60.03;;;34.05;;
10442;SDS011;5269;51.146;16.986;2022-11-15T08:50:39;60.67;;;34.40;;
10442;SDS011;5269;51.146;16.986;2022-11-15T08:53:08;54.05;;;34.28;;
10442;SDS011;5269;51.146;16.986;2022-11-15T08:55:36;62.03;;;35.78;;
10442;SDS011;5269;51.146;16.986;2022-11-15T08:58:04;60.25;;;34.20;;
10442;SDS011;5269;51.146;16.986;2022-11-15T09:00:31;59.58;;;35.33;;
10442;SDS011;5269;51.146;16.986;2022-11-15T09:03:01;57.17;;;33.25;;
10442;SDS011;5269;51.146;16.986;2022-11-15T09:05:30;54.25;;;33.28;;
10442;SDS011;5269;51.146;16.986;2022-11-15T09:07:57;57.90;;;34.03;;
10442;SDS011;5269;51.146;16.986;2022-11-15T09:10:24;60.10;;;34.38;;
10442;SDS011;5269;51.146;16.986;2022-11-15T09:12:51;61.00;;;35.25;;
10442;SDS011;5269;51.146;16.986;2022-11-15T09:15:18;60.63;;;33.92;;
10442;SDS011;5269;51.146;16.986;2022-11-15T09:17:45;55.88;;;33.20;;
10442;SDS011;5269;51.146;16.986;2022-11-15T09:20:13;50.65;;;31.88;;
10442;SDS011;5269;51.146;16.986;2022-11-15T09:22:41;47.25;;;31.13;;
10442;SDS011;5269;51.146;16.986;2022-11-15T09:25:08;51.17;;;30.65;;
10442;SDS011;5269;51.146;16.986;2022-11-15T09:27:35;48.00;;;30.73;;
10442;SDS011;5269;51.146;16.986;2022-11-15T09:30:02;47.90;;;30.55;;
10442;SDS011;5269;51.146;16.986;2022-11-15T09:32:30;45.75;;;29.73;;
10442;SDS011;5269;51.146;16.986;2022-11-15T09:34:57;48.22;;;30.17;;
10442;SDS011;5269;51.146;16.986;2022-11-15T09:37:28;43.30;;;28.40;;
10442;SDS011;5269;51.146;16.986;2022-11-15T09:39:57;44.03;;;27.88;;
10442;SDS011;5269;51.146;16.986;2022-11-15T09:42:26;47.28;;;28.95;;
10442;SDS011;5269;51.146;16.986;2022-11-15T09:45:06;39.33;;;26.23;;
10442;SDS011;5269;51.146;16.986;2022-11-15T09:47:50;47.90;;;28.55;;
10442;SDS011;5269;51.146;16.986;2022-11-15T09:50:31;44.80;;;28.65;;
10442;SDS011;5269;51.146;16.986;2022-11-15T09:53:04;46.30;;;28.45;;
10442;SDS011;5269;51.146;16.986;2022-11-15T09:55:34;46.67;;;28.63;;
10442;SDS011;5269;51.146;16.986;2022-11-15T09:58:10;45.05;;;27.00;;
10442;SDS011;5269;51.146;16.986;2022-11-15T10:00:44;45.60;;;27.17;;
10442;SDS011;5269;51.146;16.986;2022-11-15T10:03:18;46.92;;;25.80;;
10442;SDS011;5269;51.146;16.986;2022-11-15T10:05:52;40.90;;;25.70;;
10442;SDS011;5269;51.146;16.986;2022-11-15T10:08:27;41.47;;;25.60;;
10442;SDS011;5269;51.146;16.986;2022-11-15T10:11:03;40.97;;;25.35;;
10442;SDS011;5269;51.146;16.986;2022-11-15T10:13:33;44.15;;;27.77;;
10442;SDS011;5269;51.146;16.986;2022-11-15T10:16:04;40.63;;;25.95;;
10442;SDS011;5269;51.146;16.986;2022-11-15T10:18:50;40.08;;;26.50;;
10442;SDS011;5269;51.146;16.986;2022-11-15T10:21:23;37.80;;;25.13;;
10442;SDS011;5269;51.146;16.986;2022-11-15T10:23:57;38.40;;;25.85;;
10442;SDS011;5269;51.146;16.986;2022-11-15T10:26:24;36.78;;;23.65;;
10442;SDS011;5269;51.146;16.986;2022-11-15T10:28:51;39.45;;;26.70;;
10442;SDS011;5269;51.146;16.986;2022-11-15T10:31:22;38.03;;;23.65;;
10442;SDS011;5269;51.146;16.986;2022-11-15T10:33:56;37.35;;;24.48;;
10442;SDS011;5269;51.146;16.986;2022-11-15T10:36:44;32.47;;;21.52;;
10442;SDS011;5269;51.146;16.986;2022-11-15T10:39:13;37.00;;;22.00;;
10442;SDS011;5269;51.146;16.986;2022-11-15T10:41:40;34.15;;;21.30;;
10442;SDS011;5269;51.146;16.986;2022-11-15T10:44:18;27.88;;;19.92;;
10442;SDS011;5269;51.146;16.986;2022-11-15T10:46:48;30.95;;;20.73;;
10442;SDS011;5269;51.146;16.986;2022-11-15T10:49:31;31.95;;;18.58;;
10442;SDS011;5269;51.146;16.986;2022-11-15T10:51:59;29.80;;;20.05;;
10442;SDS011;5269;51.146;16.986;2022-11-15T10:54:30;27.60;;;18.77;;
10442;SDS011;5269;51.146;16.986;2022-11-15T10:57:04;26.33;;;18.02;;
10442;SDS011;5269;51.146;16.986;2022-11-15T10:59:35;25.30;;;18.10;;
10442;SDS011;5269;51.146;16.986;2022-11-15T11:04:59;31.48;;;19.33;;
10442;SDS011;5269;51.146;16.986;2022-11-15T11:07:28;31.95;;;20.08;;
10442;SDS011;5269;51.146;16.986;2022-11-15T11:09:59;27.35;;;18.27;;
10442;SDS011;5269;51.146;16.986;2022-11-15T11:12:28;23.50;;;17.30;;
10442;SDS011;5269;51.146;16.986;2022-11-15T11:14:57;23.27;;;16.33;;
10442;SDS011;5269;51.146;16.986;2022-11-15T11:17:29;25.15;;;15.73;;
10442;SDS011;5269;51.146;16.986;2022-11-15T11:20:05;22.60;;;16.33;;
10442;SDS011;5269;51.146;16.986;2022-11-15T11:22:42;22.83;;;16.83;;
10442;SDS011;5269;51.146;16.986;2022-11-15T11:25:25;19.88;;;14.48;;
10442;SDS011;5269;51.146;16.986;2022-11-15T11:28:13;21.73;;;15.05;;
10442;SDS011;5269;51.146;16.986;2022-11-15T11:30:51;22.10;;;15.20;;
10442;SDS011;5269;51.146;16.986;2022-11-15T11:33:27;20.45;;;14.48;;
10442;SDS011;5269;51.146;16.986;2022-11-15T11:36:07;21.58;;;15.13;;
10442;SDS011;5269;51.146;16.986;2022-11-15T11:38:44;20.33;;;14.40;;
10442;SDS011;5269;51.146;16.986;2022-11-15T11:41:23;21.35;;;14.55;;
10442;SDS011;5269;51.146;16.986;2022-11-15T11:44:06;21.70;;;13.40;;
10442;SDS011;5269;51.146;16.986;2022-11-15T11:46:47;20.50;;;13.68;;
10442;SDS011;5269;51.146;16.986;2022-11-15T11:49:19;17.73;;;13.52;;
10442;SDS011;5269;51.146;16.986;2022-11-15T11:51:52;23.23;;;14.38;;
10442;SDS011;5269;51.146;16.986;2022-11-15T11:54:26;20.17;;;13.65;;
10442;SDS011;5269;51.146;16.986;2022-11-15T11:57:10;18.40;;;12.68;;
10442;SDS011;5269;51.146;16.986;2022-11-15T11:59:46;18.83;;;14.02;;
10442;SDS011;5269;51.146;16.986;2022-11-15T12:02:34;20.45;;;13.73;;
10442;SDS011;5269;51.146;16.986;2022-11-15T12:05:10;21.77;;;14.93;;
10442;SDS011;5269;51.146;16.986;2022-11-15T12:07:53;19.85;;;12.70;;
10442;SDS011;5269;51.146;16.986;2022-11-15T12:10:29;16.77;;;13.15;;
10442;SDS011;5269;51.146;16.986;2022-11-15T12:13:00;17.45;;;13.23;;
10442;SDS011;5269;51.146;16.986;2022-11-15T12:15:37;18.80;;;13.18;;
10442;SDS011;5269;51.146;16.986;2022-11-15T12:18:15;20.15;;;14.70;;
10442;SDS011;5269;51.146;16.986;2022-11-15T12:20:50;15.77;;;11.88;;
10442;SDS011;5269;51.146;16.986;2022-11-15T12:23:24;16.38;;;12.63;;
10442;SDS011;5269;51.146;16.986;2022-11-15T12:25:58;16.65;;;11.93;;
10442;SDS011;5269;51.146;16.986;2022-11-15T12:28:46;13.57;;;10.85;;
10442;SDS011;5269;51.146;16.986;2022-11-15T12:31:21;13.30;;;10.35;;
10442;SDS011;5269;51.146;16.986;2022-11-15T12:36:56;18.85;;;11.98;;
10442;SDS011;5269;51.146;16.986;2022-11-15T12:42:34;15.43;;;11.18;;
10442;SDS011;5269;51.146;16.986;2022-11-15T12:45:22;16.77;;;11.75;;
10442;SDS011;5269;51.146;16.986;2022-11-15T12:47:52;14.02;;;11.50;;
10442;SDS011;5269;51.146;16.986;2022-11-15T12:53:28;16.08;;;10.73;;
10442;SDS011;5269;51.146;16.986;2022-11-15T12:58:58;14.23;;;10.82;;
10442;SDS011;5269;51.146;16.986;2022-11-15T13:01:55;14.15;;;10.68;;
10442;SDS011;5269;51.146;16.986;2022-11-15T13:04:27;14.27;;;10.77;;
10442;SDS011;5269;51.146;16.986;2022-11-15T13:07:00;15.70;;;11.30;;
10442;SDS011;5269;51.146;16.986;2022-11-15T13:16:00;17.02;;;11.40;;
10442;SDS011;5269;51.146;16.986;2022-11-15T13:18:38;16.05;;;11.00;;
10442;SDS011;5269;51.146;16.986;2022-11-15T13:21:34;13.18;;;10.13;;
10442;SDS011;5269;51.146;16.986;2022-11-15T13:24:38;14.38;;;10.70;;
10442;SDS011;5269;51.146;16.986;2022-11-15T13:27:12;19.10;;;10.88;;
10442;SDS011;5269;51.146;16.986;2022-11-15T13:29:44;13.30;;;10.77;;
10442;SDS011;5269;51.146;16.986;2022-11-15T13:32:11;13.70;;;10.88;;
10442;SDS011;5269;51.146;16.986;2022-11-15T13:34:43;15.95;;;11.20;;
10442;SDS011;5269;51.146;16.986;2022-11-15T13:37:12;17.45;;;11.15;;
10442;SDS011;5269;51.146;16.986;2022-11-15T13:40:10;14.20;;;11.07;;
10442;SDS011;5269;51.146;16.986;2022-11-15T13:42:55;15.95;;;11.15;;
10442;SDS011;5269;51.146;16.986;2022-11-15T13:45:23;14.00;;;11.07;;
10442;SDS011;5269;51.146;16.986;2022-11-15T13:47:52;16.27;;;10.95;;
10442;SDS011;5269;51.146;16.986;2022-11-15T13:50:26;16.00;;;11.40;;
10442;SDS011;5269;51.146;16.986;2022-11-15T13:53:01;13.95;;;11.30;;
10442;SDS011;5269;51.146;16.986;2022-11-15T13:55:31;15.02;;;11.07;;
10442;SDS011;5269;51.146;16.986;2022-11-15T13:57:59;13.68;;;11.15;;
10442;SDS011;5269;51.146;16.986;2022-11-15T14:00:33;17.98;;;11.93;;
10442;SDS011;5269;51.146;16.986;2022-11-15T14:03:12;14.60;;;11.65;;
10442;SDS011;5269;51.146;16.986;2022-11-15T14:05:45;17.50;;;10.70;;
10442;SDS011;5269;51.146;16.986;2022-11-15T14:08:28;16.17;;;10.57;;
10442;SDS011;5269;51.146;16.986;2022-11-15T14:11:12;14.18;;;10.48;;
10442;SDS011;5269;51.146;16.986;2022-11-15T14:13:42;14.55;;;11.10;;
10442;SDS011;5269;51.146;16.986;2022-11-15T14:16:32;14.88;;;11.32;;
10442;SDS011;5269;51.146;16.986;2022-11-15T14:19:00;17.05;;;11.70;;
10442;SDS011;5269;51.146;16.986;2022-11-15T14:21:37;17.42;;;11.93;;
10442;SDS011;5269;51.146;16.986;2022-11-15T14:24:24;16.27;;;12.05;;
10442;SDS011;5269;51.146;16.986;2022-11-15T14:27:15;16.90;;;11.93;;
10442;SDS011;5269;51.146;16.986;2022-11-15T14:29:43;16.85;;;12.20;;
10442;SDS011;5269;51.146;16.986;2022-11-15T14:32:14;18.27;;;12.57;;
10442;SDS011;5269;51.146;16.986;2022-11-15T14:34:44;17.77;;;12.95;;
10442;SDS011;5269;51.146;16.986;2022-11-15T14:37:23;20.13;;;12.68;;
10442;SDS011;5269;51.146;16.986;2022-11-15T14:39:51;17.50;;;12.15;;
10442;SDS011;5269;51.146;16.986;2022-11-15T14:42:19;17.23;;;12.27;;
10442;SDS011;5269;51.146;16.986;2022-11-15T14:44:47;15.95;;;11.57;;
10442;SDS011;5269;51.146;16.986;2022-11-15T14:47:14;17.05;;;11.63;;
10442;SDS011;5269;51.146;16.986;2022-11-15T14:49:41;17.00;;;11.32;;
10442;SDS011;5269;51.146;16.986;2022-11-15T14:52:19;16.45;;;11.02;;
10442;SDS011;5269;51.146;16.986;2022-11-15T14:54:53;16.65;;;11.30;;
10442;SDS011;5269;51.146;16.986;2022-11-15T14:57:23;15.13;;;10.30;;
10442;SDS011;5269;51.146;16.986;2022-11-15T14:59:50;13.77;;;11.02;;
10442;SDS011;5269;51.146;16.986;2022-11-15T15:02:18;15.27;;;11.05;;
10442;SDS011;5269;51.146;16.986;2022-11-15T15:04:46;16.45;;;11.25;;
10442;SDS011;5269;51.146;16.986;2022-11-15T15:07:19;15.95;;;10.82;;
10442;SDS011;5269;51.146;16.986;2022-11-15T15:09:48;15.02;;;10.90;;
10442;SDS011;5269;51.146;16.986;2022-11-15T15:12:16;15.63;;;10.75;;
10442;SDS011;5269;51.146;16.986;2022-11-15T15:14:45;15.30;;;11.32;;
10442;SDS011;5269;51.146;16.986;2022-11-15T15:17:14;27.38;;;19.55;;
10442;SDS011;5269;51.146;16.986;2022-11-15T15:19:41;48.03;;;29.80;;